• Join FlightAware (Why Join?)
  • Login
  • US Flag 
03:04PM EDT


 

Airport Tracker/Info


-or-


 

Live Flight TrackerFlight Track Log ✈ N1ER ✈ 05-Jul-2013 ✈ KFPR - KDAB

Flight Track Log - Related Links

Times and Time Zones

All times are in EDT time to prevent confusion due to time zone crossing. See the N1ER flight status page for this flight to view local times or setup timezone preferences in your user account.

Time Position Orientation Groundspeed Altitude Reporting Facility
EDT Latitude Longitude Course Direction KTS MPH feet Rate Location/Type
10:28PM 27.5519 -80.3819 316° Northwest 140 161 2,400  Level Miami Center
10:29PM 27.5783 -80.4108 316° Northwest 129 148 3,100 780 Climbing Miami Center
10:30PM 27.6028 -80.4328 321° Northwest 129 148 4,000 540 Climbing Miami Center
10:32PM 27.6833 -80.5000 324° Northwest 146 168 5,100 240 Climbing Orlando TRACON
10:33PM 27.7333 -80.5000 360° North 175 201 4,900 -60 Descending Orlando TRACON
10:34PM 27.7667 -80.5167 336° Northwest 167 192 5,000  Climbing Orlando TRACON
10:35PM 27.8167 -80.5333 344° North 165 190 5,000 -60 Level Orlando TRACON
10:36PM 27.8667 -80.5500 344° North 172 198 4,900 -60 Descending Orlando TRACON
10:37PM 27.9167 -80.5667 344° North 171 197 4,900  Level Orlando TRACON
10:38PM 27.9500 -80.5833 336° Northwest 170 196 4,900  Level Orlando TRACON
10:39PM 28.0000 -80.6000 344° North 168 193 5,000 60 Climbing Orlando TRACON
10:40PM 28.0500 -80.6167 344° North 167 192 5,100  Climbing Orlando TRACON
10:41PM 28.1000 -80.6333 344° North 170 196 5,000 -60 Descending Orlando TRACON
10:42PM 28.1333 -80.6500 336° Northwest 173 199 5,000  Level Orlando TRACON
10:43PM 28.1833 -80.6667 344° North 173 199 5,000  Level Orlando TRACON
10:44PM 28.2333 -80.6833 344° North 169 194 5,000  Level Orlando TRACON
10:45PM 28.2667 -80.7000 336° Northwest 171 197 5,000  Level Orlando TRACON
10:47PM 28.3167 -80.7167 344° North 172 198 5,000  Level Orlando TRACON
10:48PM 28.3667 -80.7333 344° North 174 200 5,000  Level Orlando TRACON
10:49PM 28.4000 -80.7500 336° Northwest 174 200 5,000  Level Orlando TRACON
10:50PM 28.4500 -80.7667 344° North 175 201 5,000  Level Orlando TRACON
10:51PM 28.5000 -80.8000 330° Northwest 167 192 5,000  Level Orlando TRACON
10:52PM 28.5500 -80.8167 344° North 171 197 5,000  Level Orlando TRACON
10:53PM 28.5833 -80.8167 360° North 163 188 5,000  Level Orlando TRACON
10:54PM 28.6333 -80.8333 344° North 173 199 5,100  Climbing Orlando TRACON
10:55PM 28.6833 -80.8667 330° Northwest 169 194 5,000  Descending Orlando TRACON
10:56PM 28.7167 -80.8833 336° Northwest 172 198 5,100  Climbing Orlando TRACON
10:58PM 28.8108 -80.9189 342° North 172 198 5,000 -60 Descending Jacksonville Center
10:59PM 28.8572 -80.9369 341° North 173 199 5,000  Level Jacksonville Center
11:00PM 28.9011 -80.9525 343° North 173 199 5,000 -120 Level Jacksonville Center
11:00PM 28.9453 -80.9706 340° North 174 200 4,800 -300 Descending Jacksonville Center
11:01PM 28.9872 -80.9911 337° Northwest 174 200 4,500 -600 Descending Jacksonville Center
11:02PM 28.9922 -81.0386 277° West 167 192 3,600 -720 Descending Jacksonville Center
11:04PM 28.9867 -81.0861 262° West 151 174 3,100 -300 Descending Jacksonville Center
11:05PM 28.9872 -81.1361 271° West 138 159 3,000 -60 Descending Jacksonville Center
11:06PM 28.9919 -81.1739 278° West 122 140 3,000  Level Jacksonville Center
11:07PM 28.9967 -81.2167 277° West 129 148 3,000  Level Jacksonville Center
11:08PM 29.0097 -81.2544 292° West 132 152 3,000  Level Jacksonville Center
11:09PM 29.0269 -81.2919 298° West 135 155 3,000 -60 Level Jacksonville Center
11:10PM 29.0483 -81.3297 303° West 139 160 2,900 -240 Descending Jacksonville Center
11:11PM 29.0794 -81.3103 29° Northeast 128 147 2,600 -540 Descending Jacksonville Center
11:12PM 29.0914 -81.2744 69° East 123 142 1,900 -540 Descending Jacksonville Center
11:13PM 29.1056 -81.2386 66° East 106 122 1,600 -120 Descending Jacksonville Center
11:14PM 29.1156 -81.2144 65° Northeast 91 105 1,700  Climbing Jacksonville Center
11:15PM 29.1300 -81.1858 60° Northeast 98 113 1,600 -120 Descending Jacksonville Center
11:16PM 29.1400 -81.1569 68° East 95 109 1,500 -300 Descending Jacksonville Center
11:17PM 29.1500 -81.1308 66° East 96 110 1,100 -480 Descending Jacksonville Center
11:18PM 29.1642 -81.0972 64° Northeast 103 119 600 -240 Descending Jacksonville Center
11:19PM 29.1889 -81.0800 31° Northeast 109 125 600  Level Jacksonville Center
11:21PM 29.1799 -81.0581 46° Northeast  Level Estimated
11:28PM 29.1799 -81.0581 46° Northeast  Level Estimated
11:29PM 29.1799 -81.0581 46° Northeast  Level Estimated
11:30PM 29.1799 -81.0581 46° Northeast  Level Estimated